Time;durP1;ratioP1;P1;durP2;ratioP2;P2;SDS_P1;SDS_P2;PMS_P1;PMS_P2;Temp;Humidity;BMP_temperature;BMP_pressure;BME280_temperature;BME280_humidity;BME280_pressure;Samples;Min_cycle;Max_cycle;Signal;HPM_P1;HPM_P2
2023/02/22 00:08:52;;;;;;;15.90;8.20;;;;;;;5.85;88.75;100282.85;673000;1262;138898;-87
2023/02/22 00:23:55;;;;;;;17.00;8.50;;;;;;;5.72;88.09;100302.30;672753;1264;138354;-88
2023/02/22 00:38:58;;;;;;;22.60;10.30;;;;;;;5.80;88.25;100318.09;673758;1261;138054;-88
2023/02/22 00:54:02;;;;;;;21.90;8.20;;;;;;;5.91;88.70;100327.07;673185;1270;138706;-88
2023/02/22 01:09:06;;;;;;;15.00;9.00;;;;;;;5.91;89.04;100344.75;671427;1271;139327;-88
2023/02/22 01:24:15;;;;;;;21.90;8.60;;;;;;;5.93;88.89;100359.91;673444;1261;138288;-88
2023/02/22 01:39:18;;;;;;;16.00;7.50;;;;;;;5.92;88.94;100379.07;673325;1260;138364;-87
2023/02/22 01:54:36;;;;;;;11.10;4.90;;;;;;;5.90;88.42;100385.63;672895;1260;138391;-89
2023/02/22 02:09:50;;;;;;;12.10;6.20;;;;;;;5.81;88.69;100393.32;672789;1260;138400;-87
2023/02/22 02:25:16;;;;;;;9.80;5.00;;;;;;;5.67;88.22;100393.71;672793;1273;139591;-87
2023/02/22 02:40:48;;;;;;;9.20;4.10;;;;;;;5.56;87.96;100405.06;672436;1270;138620;-87
2023/02/22 02:55:51;;;;;;;6.70;3.50;;;;;;;5.39;87.43;100412.23;672409;1257;138460;-87
2023/02/22 03:11:16;;;;;;;7.20;4.00;;;;;;;5.25;85.75;100428.86;673010;1261;138270;-86
2023/02/22 03:26:33;;;;;;;7.70;3.70;;;;;;;4.98;85.26;100446.49;673132;1268;138363;-87
2023/02/22 03:41:39;;;;;;;9.40;4.40;;;;;;;4.78;85.08;100460.16;673092;1260;138291;-87
2023/02/22 03:56:53;;;;;;;8.60;5.00;;;;;;;4.43;84.87;100473.02;672956;1258;138739;-85
2023/02/22 04:11:57;;;;;;;21.40;9.90;;;;;;;4.09;84.29;100486.77;673165;1260;137819;-85
2023/02/22 04:27:02;;;;;;;13.90;7.70;;;;;;;3.90;84.68;100493.91;671849;1262;137660;-85
2023/02/22 04:42:08;;;;;;;;;;;;;;;3.65;84.88;100497.55;672246;1260;139692;-85
2023/02/22 04:57:12;;;;;;;44.10;17.70;;;;;;;3.59;85.48;100505.86;672866;1259;125483;-85
2023/02/22 05:12:15;;;;;;;39.10;13.70;;;;;;;3.81;85.14;100512.55;671945;1260;139180;-85
2023/02/22 05:27:19;;;;;;;33.40;16.50;;;;;;;3.98;84.92;100534.27;673500;1266;139008;-86
2023/02/22 05:42:22;;;;;;;29.00;13.80;;;;;;;4.08;84.77;100552.26;674303;1257;139375;-87
2023/02/22 05:57:26;;;;;;;97.10;57.00;;;;;;;4.16;84.79;100564.75;674213;1259;138736;-87
2023/02/22 06:12:29;;;;;;;57.70;24.30;;;;;;;4.17;84.63;100582.23;673298;1260;139090;-86
2023/02/22 06:27:33;;;;;;;172.60;75.90;;;;;;;4.27;84.97;100586.34;676228;1273;138513;-86
2023/02/22 06:42:48;;;;;;;68.90;30.10;;;;;;;4.39;84.81;100603.46;679974;1256;138698;-87
2023/02/22 06:57:59;;;;;;;43.10;18.50;;;;;;;4.47;84.06;100627.46;678058;1260;140255;-88
2023/02/22 07:13:06;;;;;;;63.60;24.10;;;;;;;4.42;82.47;100650.41;680180;1260;140116;-88
2023/02/22 07:28:10;;;;;;;68.40;27.10;;;;;;;4.42;80.21;100661.70;682562;1259;138317;-87
2023/02/22 07:43:18;;;;;;;110.90;36.60;;;;;;;4.67;79.36;100669.27;681944;1256;138037;-86
2023/02/22 07:58:25;;;;;;;46.60;19.10;;;;;;;4.79;78.01;100677.12;676352;1261;138420;-90
2023/02/22 08:13:30;;;;;;;38.00;16.60;;;;;;;4.96;76.48;100686.70;673209;1264;139248;-91
2023/02/22 08:28:34;;;;;;;38.70;13.90;;;;;;;5.03;75.03;100691.84;673193;1259;138153;-90
2023/02/22 08:43:37;;;;;;;34.60;15.80;;;;;;;5.00;74.49;100692.54;672463;1260;138664;-88
2023/02/22 08:58:40;;;;;;;77.40;24.40;;;;;;;5.11;73.30;100695.86;673818;1260;137695;-88
2023/02/22 09:13:44;;;;;;;47.70;15.70;;;;;;;5.18;73.04;100715.08;674884;1257;138617;-87
2023/02/22 09:28:48;;;;;;;173.70;54.00;;;;;;;5.34;72.02;100724.70;673959;1260;138686;-85
2023/02/22 09:44:08;;;;;;;95.30;33.40;;;;;;;5.30;71.26;100734.12;672703;1272;138842;-87
2023/02/22 09:59:19;;;;;;;112.10;29.50;;;;;;;5.30;69.70;100734.64;673123;1264;138615;-87
2023/02/22 10:14:32;;;;;;;15.20;7.50;;;;;;;5.29;68.71;100726.07;673283;1264;138437;-85
2023/02/22 10:32:10;;;;;;;41.60;16.30;;;;;;;5.51;69.61;100733.05;652728;1303;545748;-87
2023/02/22 10:47:17;;;;;;;56.00;22.90;;;;;;;5.69;69.07;100734.28;666703;1275;138527;-87
2023/02/22 11:02:29;;;;;;;35.30;19.70;;;;;;;5.76;68.51;100741.84;666274;1274;139209;-88
2023/02/22 11:17:33;;;;;;;14.40;7.30;;;;;;;5.82;67.47;100738.65;667565;1285;138269;-87
2023/02/22 11:32:45;;;;;;;31.90;16.30;;;;;;;6.15;67.37;100732.52;666566;1275;139550;-86
2023/02/22 11:48:01;;;;;;;20.70;10.30;;;;;;;6.52;66.98;100739.10;667119;1278;138326;-86
2023/02/22 12:03:17;;;;;;;28.70;13.60;;;;;;;6.66;67.57;100745.84;666208;1275;137859;-85
2023/02/22 12:18:35;;;;;;;38.90;16.20;;;;;;;6.70;67.45;100761.27;667520;1288;138505;-85
2023/02/22 13:43:13;;;;;;;40.80;19.30;;;;;;;6.27;67.64;100784.64;666649;1275;139632;-86
2023/02/22 13:58:17;;;;;;;35.30;14.80;;;;;;;6.22;67.17;100781.95;666152;1275;139783;-87
2023/02/22 14:13:32;;;;;;;90.00;38.90;;;;;;;6.01;67.05;100787.40;668672;1272;139103;-86
2023/02/22 14:28:38;;;;;;;82.40;36.50;;;;;;;6.00;66.87;100792.48;667529;1285;138895;-86
2023/02/22 14:43:44;;;;;;;168.20;51.10;;;;;;;5.93;66.88;100788.89;669328;1274;138746;-86
2023/02/22 14:58:55;;;;;;;120.70;39.60;;;;;;;5.78;66.08;100791.36;670078;1276;139290;-87
2023/02/22 15:14:01;;;;;;;84.70;29.50;;;;;;;5.76;65.34;100788.20;668200;1278;141784;-88
2023/02/22 15:29:26;;;;;;;54.50;23.00;;;;;;;5.90;65.19;100788.02;669359;1276;138695;-87
2023/02/22 15:44:39;;;;;;;81.20;28.00;;;;;;;5.73;64.00;100792.84;668690;1289;138293;-86
2023/02/22 15:59:51;;;;;;;50.90;18.00;;;;;;;5.62;63.19;100806.87;671543;1267;138992;-87
2023/02/22 16:14:56;;;;;;;105.40;46.40;;;;;;;5.57;62.62;100808.59;670767;1267;139624;-88
2023/02/22 16:30:26;;;;;;;227.60;71.00;;;;;;;5.62;63.83;100824.73;671101;1261;138817;-87
2023/02/22 16:45:29;;;;;;;137.60;47.60;;;;;;;5.59;63.78;100834.98;672023;1265;139426;-86
2023/02/22 17:00:33;;;;;;;515.20;177.30;;;;;;;5.52;63.65;100849.08;673283;1263;138820;-86
2023/02/22 17:15:37;;;;;;;233.60;78.10;;;;;;;5.39;63.63;100846.70;673040;1265;138725;-86
2023/02/22 17:30:43;;;;;;;89.30;29.90;;;;;;;5.36;64.13;100850.55;671495;1265;139569;-86
2023/02/22 17:45:48;;;;;;;94.40;35.40;;;;;;;5.40;64.29;100857.08;673684;1276;138966;-87
2023/02/22 18:00:57;;;;;;;88.00;35.30;;;;;;;5.39;64.68;100855.41;672945;1265;139861;-86
2023/02/22 18:16:04;;;;;;;222.90;83.40;;;;;;;5.23;64.82;100866.55;672981;1264;138600;-88
2023/02/22 18:31:15;;;;;;;291.60;115.50;;;;;;;5.14;64.79;100873.94;670878;1263;139046;-88
2023/02/22 18:46:21;;;;;;;186.50;61.60;;;;;;;5.12;65.04;100877.20;671075;1263;139378;-89
2023/02/22 19:01:26;;;;;;;;;;;;;;;4.98;64.89;100872.73;672203;1259;140146;-87
2023/02/22 19:16:31;;;;;;;187.50;65.10;;;;;;;4.96;64.86;100857.63;672471;1264;124285;-88
2023/02/22 19:31:35;;;;;;;179.50;61.60;;;;;;;4.93;65.16;100865.41;672248;1260;139422;-87
2023/02/22 19:46:41;;;;;;;79.90;29.40;;;;;;;4.89;64.91;100860.09;671849;1264;138850;-88
2023/02/22 20:01:45;;;;;;;131.70;44.80;;;;;;;4.80;65.35;100857.45;672882;1263;138777;-89
2023/02/22 20:16:51;;;;;;;59.00;25.30;;;;;;;4.73;65.54;100866.64;671853;1262;138931;-89
2023/02/22 20:31:57;;;;;;;26.80;14.40;;;;;;;4.73;65.78;100857.47;673568;1263;139436;-87
2023/02/22 20:47:03;;;;;;;103.00;37.80;;;;;;;4.73;65.72;100859.24;672374;1261;138736;-87
2023/02/22 21:02:10;;;;;;;79.80;29.90;;;;;;;4.57;65.37;100853.30;674698;1262;138958;-87
2023/02/22 21:17:25;;;;;;;53.00;22.50;;;;;;;4.50;65.69;100860.09;673839;1262;139359;-86
2023/02/22 21:32:30;;;;;;;52.70;20.80;;;;;;;4.41;65.70;100867.85;673531;1261;138671;-87
2023/02/22 21:47:34;;;;;;;72.20;29.30;;;;;;;4.19;65.99;100871.61;672533;1262;138524;-86
2023/02/22 22:02:38;;;;;;;58.70;26.20;;;;;;;3.97;66.21;100867.52;672384;1263;139874;-84
2023/02/22 22:17:43;;;;;;;53.20;20.20;;;;;;;3.68;66.56;100871.73;672361;1262;138729;-86
2023/02/22 22:32:46;;;;;;;36.30;15.90;;;;;;;3.43;66.25;100873.16;671179;1262;157240;-84
2023/02/22 22:47:51;;;;;;;43.60;14.00;;;;;;;3.24;66.11;100860.90;671827;1262;138824;-85
2023/02/22 23:02:56;;;;;;;42.30;13.30;;;;;;;3.01;66.26;100857.84;671911;1262;139330;-85
2023/02/22 23:17:59;;;;;;;42.30;13.10;;;;;;;2.87;66.32;100861.96;670880;1261;138514;-84
2023/02/22 23:33:02;;;;;;;34.40;11.30;;;;;;;2.67;66.16;100864.45;670269;1262;138482;-85
2023/02/22 23:48:06;;;;;;;16.10;7.90;;;;;;;2.55;65.70;100859.43;673079;1272;138888;-85
